sensor_id;sensor_type;location;lat;lon;timestamp;pressure;altitude;pressure_sealevel;temperature;humidity
12868;BME280;33517;49.866;8.320;2023-04-30T00:02:45;100947.19;;;12.70;81.52
12868;BME280;33517;49.866;8.320;2023-04-30T00:05:37;100945.88;;;12.66;81.24
12868;BME280;33517;49.866;8.320;2023-04-30T00:08:29;100944.06;;;12.67;80.95
12868;BME280;33517;49.866;8.320;2023-04-30T00:11:21;100942.72;;;12.63;81.13
12868;BME280;33517;49.866;8.320;2023-04-30T00:14:13;100946.19;;;12.55;82.57
12868;BME280;33517;49.866;8.320;2023-04-30T00:17:06;100950.66;;;12.55;83.15
12868;BME280;33517;49.866;8.320;2023-04-30T00:19:58;100944.72;;;12.53;82.19
12868;BME280;33517;49.866;8.320;2023-04-30T00:22:50;100948.31;;;12.52;81.67
12868;BME280;33517;49.866;8.320;2023-04-30T00:25:42;100941.06;;;12.54;82.81
12868;BME280;33517;49.866;8.320;2023-04-30T00:28:34;100949.66;;;12.56;81.85
12868;BME280;33517;49.866;8.320;2023-04-30T00:31:26;100949.16;;;12.60;81.68
12868;BME280;33517;49.866;8.320;2023-04-30T00:34:19;100950.31;;;12.58;81.38
12868;BME280;33517;49.866;8.320;2023-04-30T00:37:11;100949.47;;;12.57;82.53
12868;BME280;33517;49.866;8.320;2023-04-30T00:40:03;100959.06;;;12.58;82.39
12868;BME280;33517;49.866;8.320;2023-04-30T00:42:55;100960.69;;;12.59;81.97
12868;BME280;33517;49.866;8.320;2023-04-30T00:45:47;100963.50;;;12.58;81.40
12868;BME280;33517;49.866;8.320;2023-04-30T00:48:39;100957.91;;;12.61;81.46
12868;BME280;33517;49.866;8.320;2023-04-30T00:51:32;100961.34;;;12.61;81.35
12868;BME280;33517;49.866;8.320;2023-04-30T00:54:24;100959.56;;;12.62;81.03
12868;BME280;33517;49.866;8.320;2023-04-30T00:57:16;100957.56;;;12.64;81.06
12868;BME280;33517;49.866;8.320;2023-04-30T01:00:09;100962.03;;;12.63;81.63
12868;BME280;33517;49.866;8.320;2023-04-30T01:03:01;100956.75;;;12.63;81.56
12868;BME280;33517;49.866;8.320;2023-04-30T01:05:53;100957.56;;;12.64;82.15
12868;BME280;33517;49.866;8.320;2023-04-30T01:08:47;100954.44;;;12.60;80.82
12868;BME280;33517;49.866;8.320;2023-04-30T01:11:48;100964.16;;;12.60;81.04
12868;BME280;33517;49.866;8.320;2023-04-30T01:14:55;100958.72;;;12.61;80.94
12868;BME280;33517;49.866;8.320;2023-04-30T01:17:55;100955.41;;;12.59;81.16
12868;BME280;33517;49.866;8.320;2023-04-30T01:20:53;100953.59;;;12.60;81.32
12868;BME280;33517;49.866;8.320;2023-04-30T01:24:15;100955.41;;;12.59;81.60
12868;BME280;33517;49.866;8.320;2023-04-30T01:27:15;100952.94;;;12.58;81.67
12868;BME280;33517;49.866;8.320;2023-04-30T01:30:16;100951.31;;;12.57;82.03
12868;BME280;33517;49.866;8.320;2023-04-30T01:33:09;100945.03;;;12.58;81.16
12868;BME280;33517;49.866;8.320;2023-04-30T01:36:19;100952.28;;;12.56;81.75
12868;BME280;33517;49.866;8.320;2023-04-30T01:39:21;100947.16;;;12.54;81.82
12868;BME280;33517;49.866;8.320;2023-04-30T01:42:20;100941.56;;;12.49;81.77
12868;BME280;33517;49.866;8.320;2023-04-30T01:45:24;100946.84;;;12.49;81.60
12868;BME280;33517;49.866;8.320;2023-04-30T01:48:32;100949.50;;;12.49;81.04
12868;BME280;33517;49.866;8.320;2023-04-30T01:51:34;100952.94;;;12.50;81.36
12868;BME280;33517;49.866;8.320;2023-04-30T01:54:31;100960.19;;;12.48;82.20
12868;BME280;33517;49.866;8.320;2023-04-30T01:57:28;100966.47;;;12.47;81.61
12868;BME280;33517;49.866;8.320;2023-04-30T02:00:24;100969.13;;;12.47;81.99
12868;BME280;33517;49.866;8.320;2023-04-30T02:03:16;100968.28;;;12.46;82.15
12868;BME280;33517;49.866;8.320;2023-04-30T02:06:08;100964.19;;;12.44;82.42
12868;BME280;33517;49.866;8.320;2023-04-30T02:09:00;100971.56;;;12.40;82.47
12868;BME280;33517;49.866;8.320;2023-04-30T02:11:54;100972.56;;;12.39;82.82
12868;BME280;33517;49.866;8.320;2023-04-30T02:14:47;100975.56;;;12.36;83.20
12868;BME280;33517;49.866;8.320;2023-04-30T02:17:40;100980.81;;;12.36;82.76
12868;BME280;33517;49.866;8.320;2023-04-30T02:20:32;100978.03;;;12.38;83.00
12868;BME280;33517;49.866;8.320;2023-04-30T02:23:24;100979.00;;;12.37;83.07
12868;BME280;33517;49.866;8.320;2023-04-30T02:26:16;100981.47;;;12.38;82.02
12868;BME280;33517;49.866;8.320;2023-04-30T02:29:07;100978.69;;;12.40;82.58
12868;BME280;33517;49.866;8.320;2023-04-30T02:31:59;100966.78;;;12.36;81.75
12868;BME280;33517;49.866;8.320;2023-04-30T02:34:52;100967.78;;;12.35;82.23
12868;BME280;33517;49.866;8.320;2023-04-30T02:37:44;100972.56;;;12.31;82.79
12868;BME280;33517;49.866;8.320;2023-04-30T02:40:36;100973.69;;;12.29;82.79
12868;BME280;33517;49.866;8.320;2023-04-30T02:43:28;100969.25;;;12.29;82.16
12868;BME280;33517;49.866;8.320;2023-04-30T02:46:20;100969.09;;;12.31;82.80
12868;BME280;33517;49.866;8.320;2023-04-30T02:49:12;100971.56;;;12.32;82.43
12868;BME280;33517;49.866;8.320;2023-04-30T02:52:05;100970.41;;;12.27;81.82
12868;BME280;33517;49.866;8.320;2023-04-30T02:54:59;100974.88;;;12.26;82.18
12868;BME280;33517;49.866;8.320;2023-04-30T02:57:50;100979.47;;;12.24;82.76
12868;BME280;33517;49.866;8.320;2023-04-30T03:00:42;100974.19;;;12.24;82.22
12868;BME280;33517;49.866;8.320;2023-04-30T03:03:34;100969.41;;;12.20;82.33
12868;BME280;33517;49.866;8.320;2023-04-30T03:06:26;100977.31;;;12.20;82.70
12868;BME280;33517;49.866;8.320;2023-04-30T03:09:19;100979.28;;;12.18;82.57
12868;BME280;33517;49.866;8.320;2023-04-30T03:12:11;100971.88;;;12.13;83.26
12868;BME280;33517;49.866;8.320;2023-04-30T03:15:05;100970.03;;;12.14;83.20
12868;BME280;33517;49.866;8.320;2023-04-30T03:17:57;100973.97;;;12.10;82.70
12868;BME280;33517;49.866;8.320;2023-04-30T03:20:49;100971.69;;;12.07;82.52
12868;BME280;33517;49.866;8.320;2023-04-30T03:23:41;100970.03;;;12.06;82.94
12868;BME280;33517;49.866;8.320;2023-04-30T03:26:34;100969.22;;;12.05;83.41
12868;BME280;33517;49.866;8.320;2023-04-30T03:29:26;100967.53;;;12.04;82.94
12868;BME280;33517;49.866;8.320;2023-04-30T03:32:18;100968.38;;;12.04;82.83
12868;BME280;33517;49.866;8.320;2023-04-30T03:35:10;100971.00;;;12.04;82.33
12868;BME280;33517;49.866;8.320;2023-04-30T03:38:02;100969.84;;;11.99;83.37
12868;BME280;33517;49.866;8.320;2023-04-30T03:40:53;100973.63;;;11.96;82.54
12868;BME280;33517;49.866;8.320;2023-04-30T03:43:47;100965.88;;;11.95;83.25
12868;BME280;33517;49.866;8.320;2023-04-30T03:46:38;100966.88;;;11.94;82.67
12868;BME280;33517;49.866;8.320;2023-04-30T03:49:30;100971.94;;;11.87;83.31
12868;BME280;33517;49.866;8.320;2023-04-30T03:52:22;100962.53;;;11.85;83.01
12868;BME280;33517;49.866;8.320;2023-04-30T03:55:14;100961.38;;;11.79;83.91
12868;BME280;33517;49.866;8.320;2023-04-30T03:58:06;100965.97;;;11.77;83.54
12868;BME280;33517;49.866;8.320;2023-04-30T04:00:59;100965.00;;;11.78;83.07
12868;BME280;33517;49.866;8.320;2023-04-30T04:03:52;100963.34;;;11.77;83.34
12868;BME280;33517;49.866;8.320;2023-04-30T04:06:44;100962.81;;;11.74;83.54
12868;BME280;33517;49.866;8.320;2023-04-30T04:09:36;100975.03;;;11.75;83.88
12868;BME280;33517;49.866;8.320;2023-04-30T04:12:28;100973.22;;;11.75;83.38
12868;BME280;33517;49.866;8.320;2023-04-30T04:15:19;100974.50;;;11.71;84.35
12868;BME280;33517;49.866;8.320;2023-04-30T04:18:13;100981.91;;;11.68;84.46
12868;BME280;33517;49.866;8.320;2023-04-30T04:21:04;100978.16;;;11.70;84.22
12868;BME280;33517;49.866;8.320;2023-04-30T04:23:57;100977.16;;;11.71;84.14
12868;BME280;33517;49.866;8.320;2023-04-30T04:26:49;100984.38;;;11.69;84.16
12868;BME280;33517;49.866;8.320;2023-04-30T04:29:40;100989.66;;;11.69;83.66
12868;BME280;33517;49.866;8.320;2023-04-30T04:32:32;100990.31;;;11.71;84.06
12868;BME280;33517;49.866;8.320;2023-04-30T04:35:37;100996.13;;;11.75;84.15
12868;BME280;33517;49.866;8.320;2023-04-30T04:38:29;100993.50;;;11.75;84.05
12868;BME280;33517;49.866;8.320;2023-04-30T04:41:21;100994.63;;;11.72;83.69
12868;BME280;33517;49.866;8.320;2023-04-30T04:44:13;100997.28;;;11.72;83.65
12868;BME280;33517;49.866;8.320;2023-04-30T04:47:05;100993.78;;;11.72;83.62
12868;BME280;33517;49.866;8.320;2023-04-30T04:49:57;101002.88;;;11.77;84.02
12868;BME280;33517;49.866;8.320;2023-04-30T04:52:51;101007.84;;;11.80;83.34
12868;BME280;33517;49.866;8.320;2023-04-30T04:55:43;101001.06;;;11.78;83.97
12868;BME280;33517;49.866;8.320;2023-04-30T04:58:35;101005.06;;;11.82;83.78
12868;BME280;33517;49.866;8.320;2023-04-30T05:01:27;100999.81;;;11.90;82.79
12868;BME280;33517;49.866;8.320;2023-04-30T05:04:19;100995.88;;;11.94;82.74
12868;BME280;33517;49.866;8.320;2023-04-30T05:07:11;101003.63;;;11.95;82.57
12868;BME280;33517;49.866;8.320;2023-04-30T05:10:05;101000.81;;;11.97;83.29
12868;BME280;33517;49.866;8.320;2023-04-30T05:12:57;101002.50;;;12.06;82.67
12868;BME280;33517;49.866;8.320;2023-04-30T05:15:51;100996.25;;;12.07;83.24
12868;BME280;33517;49.866;8.320;2023-04-30T05:18:43;100996.59;;;12.12;82.63
12868;BME280;33517;49.866;8.320;2023-04-30T05:21:35;100994.81;;;12.21;81.84
12868;BME280;33517;49.866;8.320;2023-04-30T05:24:27;100991.53;;;12.27;82.59
12868;BME280;33517;49.866;8.320;2023-04-30T05:27:20;100994.63;;;12.22;81.39
12868;BME280;33517;49.866;8.320;2023-04-30T05:30:12;100999.59;;;12.33;81.98
12868;BME280;33517;49.866;8.320;2023-04-30T05:33:05;100991.38;;;12.44;81.20
12868;BME280;33517;49.866;8.320;2023-04-30T05:35:57;100999.00;;;12.55;81.25
12868;BME280;33517;49.866;8.320;2023-04-30T05:38:48;101004.28;;;12.79;80.05
12868;BME280;33517;49.866;8.320;2023-04-30T05:41:41;101006.94;;;12.95;80.09
12868;BME280;33517;49.866;8.320;2023-04-30T05:44:34;101002.50;;;13.12;79.05
12868;BME280;33517;49.866;8.320;2023-04-30T05:47:26;101003.47;;;13.27;78.15
12868;BME280;33517;49.866;8.320;2023-04-30T05:50:18;101005.91;;;13.45;77.70
12868;BME280;33517;49.866;8.320;2023-04-30T05:53:09;101003.56;;;13.50;77.82
12868;BME280;33517;49.866;8.320;2023-04-30T05:56:01;101007.97;;;13.73;74.85
12868;BME280;33517;49.866;8.320;2023-04-30T05:58:53;101007.63;;;13.76;75.69
12868;BME280;33517;49.866;8.320;2023-04-30T06:01:47;101012.25;;;13.74;75.01
12868;BME280;33517;49.866;8.320;2023-04-30T06:04:39;101005.44;;;13.80;75.21
12868;BME280;33517;49.866;8.320;2023-04-30T06:07:31;101006.94;;;13.82;75.12
12868;BME280;33517;49.866;8.320;2023-04-30T06:10:23;101006.44;;;13.87;73.90
12868;BME280;33517;49.866;8.320;2023-04-30T06:13:15;101012.16;;;13.99;74.31
12868;BME280;33517;49.866;8.320;2023-04-30T06:16:07;101007.34;;;14.63;72.39
12868;BME280;33517;49.866;8.320;2023-04-30T06:19:00;101002.63;;;16.27;68.39
12868;BME280;33517;49.866;8.320;2023-04-30T06:21:52;101000.31;;;17.92;64.46
12868;BME280;33517;49.866;8.320;2023-04-30T06:24:44;101003.31;;;19.99;57.74
12868;BME280;33517;49.866;8.320;2023-04-30T06:27:36;101004.63;;;21.82;53.75
12868;BME280;33517;49.866;8.320;2023-04-30T06:30:28;101011.84;;;24.33;47.59
12868;BME280;33517;49.866;8.320;2023-04-30T06:33:21;101022.25;;;24.57;45.79
12868;BME280;33517;49.866;8.320;2023-04-30T06:36:14;101025.38;;;26.04;43.76
12868;BME280;33517;49.866;8.320;2023-04-30T06:39:06;101032.53;;;23.81;44.12
12868;BME280;33517;49.866;8.320;2023-04-30T06:41:57;101034.97;;;20.47;51.29
12868;BME280;33517;49.866;8.320;2023-04-30T06:44:49;101032.00;;;19.60;54.08
12868;BME280;33517;49.866;8.320;2023-04-30T06:47:41;101023.34;;;21.64;49.23
12868;BME280;33517;49.866;8.320;2023-04-30T06:50:35;101020.44;;;23.55;46.07
12868;BME280;33517;49.866;8.320;2023-04-30T06:53:35;101017.03;;;25.45;41.40
12868;BME280;33517;49.866;8.320;2023-04-30T06:56:27;101016.28;;;25.50;40.76
12868;BME280;33517;49.866;8.320;2023-04-30T06:59:19;101023.69;;;26.99;38.76
12868;BME280;33517;49.866;8.320;2023-04-30T07:02:11;101021.59;;;27.43;37.29
12868;BME280;33517;49.866;8.320;2023-04-30T07:05:03;101025.00;;;28.17;37.12
12868;BME280;33517;49.866;8.320;2023-04-30T07:07:56;101020.69;;;28.31;35.65
12868;BME280;33517;49.866;8.320;2023-04-30T07:10:49;101019.41;;;28.54;35.21
12868;BME280;33517;49.866;8.320;2023-04-30T07:13:41;101013.09;;;29.69;33.54
12868;BME280;33517;49.866;8.320;2023-04-30T07:16:33;101011.97;;;29.95;33.10
12868;BME280;33517;49.866;8.320;2023-04-30T07:19:25;101020.78;;;29.01;32.71
12868;BME280;33517;49.866;8.320;2023-04-30T07:22:17;101011.50;;;29.68;33.14
12868;BME280;33517;49.866;8.320;2023-04-30T07:25:09;101015.69;;;30.58;31.68
12868;BME280;33517;49.866;8.320;2023-04-30T07:28:03;101017.34;;;30.54;31.92
12868;BME280;33517;49.866;8.320;2023-04-30T07:30:54;101006.91;;;30.71;31.52
12868;BME280;33517;49.866;8.320;2023-04-30T07:33:46;101009.69;;;31.00;30.89
12868;BME280;33517;49.866;8.320;2023-04-30T07:36:40;101003.94;;;31.06;30.53
12868;BME280;33517;49.866;8.320;2023-04-30T07:39:31;101006.44;;;31.55;29.54
12868;BME280;33517;49.866;8.320;2023-04-30T07:42:23;101003.53;;;31.70;29.87
12868;BME280;33517;49.866;8.320;2023-04-30T07:45:17;101010.72;;;32.64;28.82
12868;BME280;33517;49.866;8.320;2023-04-30T07:48:09;101008.72;;;32.14;27.66
12868;BME280;33517;49.866;8.320;2023-04-30T07:51:00;101006.50;;;31.97;28.37
12868;BME280;33517;49.866;8.320;2023-04-30T07:53:54;101010.75;;;32.45;28.46
12868;BME280;33517;49.866;8.320;2023-04-30T07:56:46;101005.56;;;32.63;27.47
12868;BME280;33517;49.866;8.320;2023-04-30T07:59:38;101012.63;;;32.63;27.56
12868;BME280;33517;49.866;8.320;2023-04-30T08:02:31;101006.13;;;32.97;26.91
12868;BME280;33517;49.866;8.320;2023-04-30T08:05:24;101007.88;;;33.66;27.15
12868;BME280;33517;49.866;8.320;2023-04-30T08:08:15;101010.38;;;33.89;26.47
12868;BME280;33517;49.866;8.320;2023-04-30T08:11:07;101008.97;;;33.51;26.43
12868;BME280;33517;49.866;8.320;2023-04-30T08:13:59;101018.03;;;33.33;26.32
12868;BME280;33517;49.866;8.320;2023-04-30T08:16:51;101010.19;;;33.72;25.78
12868;BME280;33517;49.866;8.320;2023-04-30T08:19:44;101010.97;;;33.00;25.82
12868;BME280;33517;49.866;8.320;2023-04-30T08:22:36;101004.63;;;34.04;25.01
12868;BME280;33517;49.866;8.320;2023-04-30T08:25:28;101005.63;;;33.81;24.28
12868;BME280;33517;49.866;8.320;2023-04-30T08:28:21;101010.28;;;33.54;25.03
12868;BME280;33517;49.866;8.320;2023-04-30T08:31:12;101001.59;;;33.52;23.16
12868;BME280;33517;49.866;8.320;2023-04-30T08:34:04;101003.91;;;34.12;24.85
12868;BME280;33517;49.866;8.320;2023-04-30T08:36:58;101004.19;;;34.60;23.76
12868;BME280;33517;49.866;8.320;2023-04-30T08:39:50;100993.09;;;34.87;23.86
12868;BME280;33517;49.866;8.320;2023-04-30T08:42:45;101001.88;;;34.98;23.13
12868;BME280;33517;49.866;8.320;2023-04-30T08:45:37;101000.88;;;34.94;24.39
12868;BME280;33517;49.866;8.320;2023-04-30T08:48:31;101002.88;;;35.63;23.79
12868;BME280;33517;49.866;8.320;2023-04-30T08:51:24;101002.44;;;35.87;22.64
12868;BME280;33517;49.866;8.320;2023-04-30T08:54:18;101006.66;;;34.92;22.86
12868;BME280;33517;49.866;8.320;2023-04-30T08:57:10;100999.44;;;34.74;22.38
12868;BME280;33517;49.866;8.320;2023-04-30T09:00:03;100998.09;;;34.63;23.78
12868;BME280;33517;49.866;8.320;2023-04-30T09:02:55;101003.63;;;35.55;22.43
12868;BME280;33517;49.866;8.320;2023-04-30T09:05:47;101001.25;;;35.62;21.53
12868;BME280;33517;49.866;8.320;2023-04-30T09:08:40;101002.34;;;36.35;21.06
12868;BME280;33517;49.866;8.320;2023-04-30T09:11:34;100998.00;;;36.25;22.06
12868;BME280;33517;49.866;8.320;2023-04-30T09:14:26;100996.72;;;35.58;22.20
12868;BME280;33517;49.866;8.320;2023-04-30T09:17:20;101000.78;;;36.59;20.76
12868;BME280;33517;49.866;8.320;2023-04-30T09:20:13;100992.09;;;35.36;20.65
12868;BME280;33517;49.866;8.320;2023-04-30T09:23:07;100994.88;;;35.84;20.68
12868;BME280;33517;49.866;8.320;2023-04-30T09:25:59;100987.59;;;35.71;20.52
12868;BME280;33517;49.866;8.320;2023-04-30T09:28:57;100988.69;;;36.43;21.11
12868;BME280;33517;49.866;8.320;2023-04-30T09:31:49;100989.16;;;37.34;20.46
12868;BME280;33517;49.866;8.320;2023-04-30T09:34:41;100983.00;;;36.31;19.22
12868;BME280;33517;49.866;8.320;2023-04-30T09:37:36;100972.19;;;36.18;19.79
12868;BME280;33517;49.866;8.320;2023-04-30T09:40:33;100973.69;;;35.28;20.11
12868;BME280;33517;49.866;8.320;2023-04-30T09:43:25;100968.78;;;35.39;20.04
12868;BME280;33517;49.866;8.320;2023-04-30T09:46:28;100956.34;;;35.80;19.73
12868;BME280;33517;49.866;8.320;2023-04-30T09:49:20;100960.50;;;37.06;19.22
12868;BME280;33517;49.866;8.320;2023-04-30T09:52:14;100953.44;;;36.79;19.26
12868;BME280;33517;49.866;8.320;2023-04-30T09:55:07;100957.84;;;37.35;19.25
12868;BME280;33517;49.866;8.320;2023-04-30T09:57:59;100953.66;;;36.15;18.23
12868;BME280;33517;49.866;8.320;2023-04-30T10:00:52;100955.91;;;36.30;19.50
12868;BME280;33517;49.866;8.320;2023-04-30T10:03:47;100955.47;;;32.21;21.80
12868;BME280;33517;49.866;8.320;2023-04-30T10:06:41;100955.03;;;33.97;20.92
12868;BME280;33517;49.866;8.320;2023-04-30T10:09:38;100940.34;;;34.65;20.19
12868;BME280;33517;49.866;8.320;2023-04-30T10:12:35;100937.47;;;35.62;19.54
12868;BME280;33517;49.866;8.320;2023-04-30T10:15:33;100936.84;;;37.89;18.32
12868;BME280;33517;49.866;8.320;2023-04-30T10:18:31;100939.19;;;36.40;18.15
12868;BME280;33517;49.866;8.320;2023-04-30T10:21:26;100934.59;;;36.78;18.97
12868;BME280;33517;49.866;8.320;2023-04-30T10:24:19;100927.41;;;37.49;18.35
12868;BME280;33517;49.866;8.320;2023-04-30T10:27:11;100924.31;;;37.50;18.39
12868;BME280;33517;49.866;8.320;2023-04-30T10:30:05;100909.88;;;38.44;18.29
12868;BME280;33517;49.866;8.320;2023-04-30T10:33:08;100918.28;;;38.60;18.28
12868;BME280;33517;49.866;8.320;2023-04-30T10:36:03;100921.09;;;37.77;17.93
12868;BME280;33517;49.866;8.320;2023-04-30T10:39:00;100909.97;;;37.07;18.35
12868;BME280;33517;49.866;8.320;2023-04-30T10:42:00;100906.03;;;37.54;18.28
12868;BME280;33517;49.866;8.320;2023-04-30T10:44:53;100901.56;;;37.04;18.97
12868;BME280;33517;49.866;8.320;2023-04-30T10:47:46;100906.41;;;37.44;18.76
12868;BME280;33517;49.866;8.320;2023-04-30T10:50:42;100903.38;;;37.66;17.58
12868;BME280;33517;49.866;8.320;2023-04-30T10:53:35;100902.00;;;35.65;18.48
12868;BME280;33517;49.866;8.320;2023-04-30T10:56:32;100895.06;;;36.62;19.14
12868;BME280;33517;49.866;8.320;2023-04-30T10:59:24;100891.69;;;34.84;19.58
12868;BME280;33517;49.866;8.320;2023-04-30T11:02:19;100893.19;;;36.45;18.38
12868;BME280;33517;49.866;8.320;2023-04-30T11:05:12;100885.69;;;36.71;17.48
12868;BME280;33517;49.866;8.320;2023-04-30T11:08:05;100885.16;;;37.33;17.80
12868;BME280;33517;49.866;8.320;2023-04-30T11:11:01;100876.44;;;38.01;18.85
12868;BME280;33517;49.866;8.320;2023-04-30T11:13:59;100879.38;;;35.34;19.68
12868;BME280;33517;49.866;8.320;2023-04-30T11:16:52;100870.94;;;36.21;19.55
12868;BME280;33517;49.866;8.320;2023-04-30T11:19:47;100863.78;;;37.09;19.31
12868;BME280;33517;49.866;8.320;2023-04-30T11:22:40;100860.88;;;37.64;18.21
12868;BME280;33517;49.866;8.320;2023-04-30T11:25:38;100863.66;;;37.35;18.65
12868;BME280;33517;49.866;8.320;2023-04-30T11:28:31;100862.41;;;37.32;18.70
12868;BME280;33517;49.866;8.320;2023-04-30T11:31:33;100859.97;;;37.31;18.58
12868;BME280;33517;49.866;8.320;2023-04-30T11:34:25;100855.59;;;38.00;17.85
12868;BME280;33517;49.866;8.320;2023-04-30T11:37:19;100853.56;;;37.18;18.76
12868;BME280;33517;49.866;8.320;2023-04-30T11:40:12;100853.75;;;37.63;18.74
12868;BME280;33517;49.866;8.320;2023-04-30T11:43:05;100853.09;;;37.08;18.47
12868;BME280;33517;49.866;8.320;2023-04-30T11:46:02;100851.03;;;36.67;18.42
12868;BME280;33517;49.866;8.320;2023-04-30T11:48:56;100840.81;;;37.63;17.16
12868;BME280;33517;49.866;8.320;2023-04-30T11:51:48;100839.34;;;39.33;17.16
12868;BME280;33517;49.866;8.320;2023-04-30T11:54:41;100837.53;;;36.91;17.02
12868;BME280;33517;49.866;8.320;2023-04-30T11:57:39;100835.50;;;36.07;17.41
12868;BME280;33517;49.866;8.320;2023-04-30T12:00:31;100820.00;;;37.13;18.06
12868;BME280;33517;49.866;8.320;2023-04-30T12:03:23;100820.53;;;35.06;18.81
12868;BME280;33517;49.866;8.320;2023-04-30T12:06:22;100824.19;;;32.06;20.27
12868;BME280;33517;49.866;8.320;2023-04-30T12:09:14;100822.84;;;29.85;22.44
12868;BME280;33517;49.866;8.320;2023-04-30T12:12:06;100814.75;;;30.14;23.57
12868;BME280;33517;49.866;8.320;2023-04-30T12:15:09;100812.34;;;31.97;22.57
12868;BME280;33517;49.866;8.320;2023-04-30T12:18:11;100807.22;;;34.21;21.57
12868;BME280;33517;49.866;8.320;2023-04-30T12:21:04;100812.69;;;35.21;20.29
12868;BME280;33517;49.866;8.320;2023-04-30T12:23:58;100812.63;;;36.58;19.19
12868;BME280;33517;49.866;8.320;2023-04-30T12:26:52;100814.34;;;36.71;19.12
12868;BME280;33517;49.866;8.320;2023-04-30T12:29:44;100806.94;;;33.87;20.08
12868;BME280;33517;49.866;8.320;2023-04-30T12:32:39;100803.81;;;33.58;19.97
12868;BME280;33517;49.866;8.320;2023-04-30T12:35:31;100806.25;;;33.81;20.29
12868;BME280;33517;49.866;8.320;2023-04-30T12:38:23;100799.28;;;34.64;20.58
12868;BME280;33517;49.866;8.320;2023-04-30T12:41:16;100805.16;;;34.49;20.35
12868;BME280;33517;49.866;8.320;2023-04-30T12:44:18;100806.94;;;34.53;20.38
12868;BME280;33517;49.866;8.320;2023-04-30T12:47:10;100791.94;;;32.72;20.19
12868;BME280;33517;49.866;8.320;2023-04-30T12:50:05;100796.00;;;31.41;20.76
12868;BME280;33517;49.866;8.320;2023-04-30T12:53:00;100789.75;;;31.96;21.25
12868;BME280;33517;49.866;8.320;2023-04-30T12:56:09;100784.25;;;32.60;21.00
12868;BME280;33517;49.866;8.320;2023-04-30T12:59:14;100781.16;;;31.10;21.97
12868;BME280;33517;49.866;8.320;2023-04-30T13:02:07;100771.38;;;29.65;22.91
12868;BME280;33517;49.866;8.320;2023-04-30T13:05:00;100766.81;;;29.02;24.30
12868;BME280;33517;49.866;8.320;2023-04-30T13:07:52;100753.47;;;27.96;25.06
12868;BME280;33517;49.866;8.320;2023-04-30T13:10:45;100755.94;;;26.96;26.09
12868;BME280;33517;49.866;8.320;2023-04-30T13:13:37;100746.28;;;26.58;27.04
12868;BME280;33517;49.866;8.320;2023-04-30T13:16:31;100749.72;;;26.90;27.18
12868;BME280;33517;49.866;8.320;2023-04-30T13:19:24;100741.63;;;26.95;26.72
12868;BME280;33517;49.866;8.320;2023-04-30T13:22:16;100738.09;;;26.95;26.65
12868;BME280;33517;49.866;8.320;2023-04-30T13:25:08;100735.75;;;27.18;26.23
12868;BME280;33517;49.866;8.320;2023-04-30T13:28:00;100733.03;;;27.13;26.14
12868;BME280;33517;49.866;8.320;2023-04-30T13:30:52;100738.03;;;26.33;26.44
12868;BME280;33517;49.866;8.320;2023-04-30T13:33:45;100733.84;;;25.30;26.89
12868;BME280;33517;49.866;8.320;2023-04-30T13:36:37;100729.53;;;25.29;27.94
12868;BME280;33517;49.866;8.320;2023-04-30T13:39:29;100726.75;;;25.19;28.00
12868;BME280;33517;49.866;8.320;2023-04-30T13:42:21;100716.88;;;25.03;28.21
12868;BME280;33517;49.866;8.320;2023-04-30T13:45:12;100710.81;;;24.53;28.66
12868;BME280;33517;49.866;8.320;2023-04-30T13:48:05;100713.22;;;24.33;28.77
12868;BME280;33517;49.866;8.320;2023-04-30T13:50:59;100717.06;;;23.87;28.68
12868;BME280;33517;49.866;8.320;2023-04-30T13:53:51;100716.00;;;23.71;29.07
12868;BME280;33517;49.866;8.320;2023-04-30T13:56:42;100700.53;;;23.95;28.75
12868;BME280;33517;49.866;8.320;2023-04-30T13:59:34;100705.84;;;23.90;29.06
12868;BME280;33517;49.866;8.320;2023-04-30T14:02:26;100699.47;;;24.29;29.17
12868;BME280;33517;49.866;8.320;2023-04-30T14:05:18;100705.06;;;24.66;29.88
12868;BME280;33517;49.866;8.320;2023-04-30T14:08:11;100693.34;;;24.72;28.89
12868;BME280;33517;49.866;8.320;2023-04-30T14:11:03;100701.25;;;24.62;28.51
12868;BME280;33517;49.866;8.320;2023-04-30T14:13:56;100695.94;;;24.89;29.17
12868;BME280;33517;49.866;8.320;2023-04-30T14:16:47;100693.09;;;24.95;29.37
12868;BME280;33517;49.866;8.320;2023-04-30T14:19:39;100698.22;;;24.75;28.93
12868;BME280;33517;49.866;8.320;2023-04-30T14:22:31;100690.13;;;24.53;28.92
12868;BME280;33517;49.866;8.320;2023-04-30T14:25:25;100687.72;;;24.35;29.07
12868;BME280;33517;49.866;8.320;2023-04-30T14:28:17;100688.78;;;24.34;29.56
12868;BME280;33517;49.866;8.320;2023-04-30T14:31:09;100691.06;;;24.26;28.91
12868;BME280;33517;49.866;8.320;2023-04-30T14:34:01;100688.75;;;24.13;28.37
12868;BME280;33517;49.866;8.320;2023-04-30T14:36:52;100682.06;;;23.82;28.59
12868;BME280;33517;49.866;8.320;2023-04-30T14:39:44;100681.06;;;23.71;29.03
12868;BME280;33517;49.866;8.320;2023-04-30T14:42:37;100679.91;;;24.01;28.89
12868;BME280;33517;49.866;8.320;2023-04-30T14:45:31;100679.75;;;23.91;28.96
12868;BME280;33517;49.866;8.320;2023-04-30T14:48:23;100666.34;;;24.07;29.58
12868;BME280;33517;49.866;8.320;2023-04-30T14:51:15;100665.50;;;24.45;29.29
12868;BME280;33517;49.866;8.320;2023-04-30T14:54:07;100660.53;;;24.53;28.89
12868;BME280;33517;49.866;8.320;2023-04-30T14:56:59;100667.69;;;24.26;28.50
12868;BME280;33517;49.866;8.320;2023-04-30T14:59:52;100656.00;;;23.83;28.89
12868;BME280;33517;49.866;8.320;2023-04-30T15:02:47;100652.09;;;23.40;30.12
12868;BME280;33517;49.866;8.320;2023-04-30T15:05:39;100647.19;;;23.37;31.50
12868;BME280;33517;49.866;8.320;2023-04-30T15:08:31;100646.47;;;23.14;32.56